Oakford, Indiana
Current Conditions -  °F | °C
As of 7:35 PM on Saturday 25 Oct 2014 (Local Time) from KOKK Reporting Station
Clear Clear  
Wind Chill: 61°   Ceiling: Unl
Heat Index: 61°   Visibility: 10mi
Dew Point: 45°   Wind: 8mph
Humidity: 55%   Direction: 280°W
Pressure: 29.91"   Gusts: NA
Location:  40.42°N, 86.1°W
Report Text: KOKK 252335Z AUTO 28007KT 10SM CLR 16/07 A2991 RMK AO1
Loading
Personal Weather Stations






























Interactive Weather Map
Tropical Storm Tracking
New forecast layout! Learn more

10-Day Weather Forecast

Advertisements
Track Severe Weather on mobile